sensor_id;sensor_type;location;lat;lon;timestamp;P1;durP1;ratioP1;P2;durP2;ratioP2
28848;SDS011;15981;43.292;-2.888;2023-01-08T00:01:49;2.15;;;1.95;;
28848;SDS011;15981;43.292;-2.888;2023-01-08T00:04:15;2.15;;;1.92;;
28848;SDS011;15981;43.292;-2.888;2023-01-08T00:06:42;2.10;;;1.88;;
28848;SDS011;15981;43.292;-2.888;2023-01-08T00:09:09;2.10;;;1.73;;
28848;SDS011;15981;43.292;-2.888;2023-01-08T00:11:34;1.60;;;1.50;;
28848;SDS011;15981;43.292;-2.888;2023-01-08T00:14:00;1.85;;;1.70;;
28848;SDS011;15981;43.292;-2.888;2023-01-08T00:16:26;2.88;;;1.60;;
28848;SDS011;15981;43.292;-2.888;2023-01-08T00:18:52;1.85;;;1.52;;
28848;SDS011;15981;43.292;-2.888;2023-01-08T00:21:18;2.00;;;1.90;;
28848;SDS011;15981;43.292;-2.888;2023-01-08T00:23:45;1.60;;;1.50;;
28848;SDS011;15981;43.292;-2.888;2023-01-08T00:26:11;1.83;;;1.70;;
28848;SDS011;15981;43.292;-2.888;2023-01-08T00:28:38;1.73;;;1.50;;
28848;SDS011;15981;43.292;-2.888;2023-01-08T00:31:05;3.35;;;1.75;;
28848;SDS011;15981;43.292;-2.888;2023-01-08T00:33:31;2.42;;;1.92;;
28848;SDS011;15981;43.292;-2.888;2023-01-08T00:35:57;2.10;;;1.73;;
28848;SDS011;15981;43.292;-2.888;2023-01-08T00:38:26;2.03;;;1.50;;
28848;SDS011;15981;43.292;-2.888;2023-01-08T00:40:52;1.55;;;1.45;;
28848;SDS011;15981;43.292;-2.888;2023-01-08T00:43:17;1.70;;;1.50;;
28848;SDS011;15981;43.292;-2.888;2023-01-08T00:45:43;1.70;;;1.55;;
28848;SDS011;15981;43.292;-2.888;2023-01-08T00:48:09;2.10;;;1.65;;
28848;SDS011;15981;43.292;-2.888;2023-01-08T00:50:35;2.05;;;1.73;;
28848;SDS011;15981;43.292;-2.888;2023-01-08T00:53:01;2.10;;;1.83;;
28848;SDS011;15981;43.292;-2.888;2023-01-08T00:55:28;1.50;;;1.40;;
28848;SDS011;15981;43.292;-2.888;2023-01-08T00:57:54;1.80;;;1.70;;
28848;SDS011;15981;43.292;-2.888;2023-01-08T01:00:20;2.33;;;1.80;;
28848;SDS011;15981;43.292;-2.888;2023-01-08T01:02:46;2.20;;;1.73;;
28848;SDS011;15981;43.292;-2.888;2023-01-08T01:05:12;1.58;;;1.48;;
28848;SDS011;15981;43.292;-2.888;2023-01-08T01:07:40;1.88;;;1.60;;
28848;SDS011;15981;43.292;-2.888;2023-01-08T01:10:06;1.65;;;1.50;;
28848;SDS011;15981;43.292;-2.888;2023-01-08T01:12:32;2.90;;;1.80;;
28848;SDS011;15981;43.292;-2.888;2023-01-08T01:14:58;1.42;;;1.33;;
28848;SDS011;15981;43.292;-2.888;2023-01-08T01:17:24;1.98;;;1.30;;
28848;SDS011;15981;43.292;-2.888;2023-01-08T01:19:50;2.42;;;1.50;;
28848;SDS011;15981;43.292;-2.888;2023-01-08T01:22:16;2.30;;;1.38;;
28848;SDS011;15981;43.292;-2.888;2023-01-08T01:24:41;1.50;;;1.40;;
28848;SDS011;15981;43.292;-2.888;2023-01-08T01:27:07;2.28;;;1.67;;
28848;SDS011;15981;43.292;-2.888;2023-01-08T01:29:33;2.35;;;1.67;;
28848;SDS011;15981;43.292;-2.888;2023-01-08T01:31:59;1.75;;;1.40;;
28848;SDS011;15981;43.292;-2.888;2023-01-08T01:34:24;1.88;;;1.50;;
28848;SDS011;15981;43.292;-2.888;2023-01-08T01:36:50;1.70;;;1.60;;
28848;SDS011;15981;43.292;-2.888;2023-01-08T01:39:16;1.58;;;1.33;;
28848;SDS011;15981;43.292;-2.888;2023-01-08T01:41:44;2.25;;;1.80;;
28848;SDS011;15981;43.292;-2.888;2023-01-08T01:46:55;1.65;;;1.55;;
28848;SDS011;15981;43.292;-2.888;2023-01-08T01:49:20;1.77;;;1.50;;
28848;SDS011;15981;43.292;-2.888;2023-01-08T01:51:48;1.50;;;1.40;;
28848;SDS011;15981;43.292;-2.888;2023-01-08T01:54:15;1.50;;;1.40;;
28848;SDS011;15981;43.292;-2.888;2023-01-08T01:56:42;2.90;;;1.30;;
28848;SDS011;15981;43.292;-2.888;2023-01-08T01:59:09;1.33;;;1.23;;
28848;SDS011;15981;43.292;-2.888;2023-01-08T02:01:35;2.20;;;1.67;;
28848;SDS011;15981;43.292;-2.888;2023-01-08T02:04:00;1.23;;;1.13;;
28848;SDS011;15981;43.292;-2.888;2023-01-08T02:07:02;1.50;;;1.35;;
28848;SDS011;15981;43.292;-2.888;2023-01-08T02:12:18;1.60;;;1.48;;
28848;SDS011;15981;43.292;-2.888;2023-01-08T02:17:11;1.77;;;1.42;;
28848;SDS011;15981;43.292;-2.888;2023-01-08T02:19:44;1.63;;;1.33;;
28848;SDS011;15981;43.292;-2.888;2023-01-08T02:22:29;2.40;;;1.75;;
28848;SDS011;15981;43.292;-2.888;2023-01-08T02:27:44;1.10;;;1.00;;
28848;SDS011;15981;43.292;-2.888;2023-01-08T02:30:12;3.53;;;1.48;;
28848;SDS011;15981;43.292;-2.888;2023-01-08T02:32:38;1.40;;;1.30;;
28848;SDS011;15981;43.292;-2.888;2023-01-08T02:35:05;1.77;;;1.25;;
28848;SDS011;15981;43.292;-2.888;2023-01-08T02:37:31;1.60;;;1.40;;
28848;SDS011;15981;43.292;-2.888;2023-01-08T02:42:32;1.92;;;1.60;;
28848;SDS011;15981;43.292;-2.888;2023-01-08T02:47:35;1.60;;;1.50;;
28848;SDS011;15981;43.292;-2.888;2023-01-08T02:52:40;1.25;;;1.15;;
28848;SDS011;15981;43.292;-2.888;2023-01-08T02:55:10;1.45;;;1.25;;
28848;SDS011;15981;43.292;-2.888;2023-01-08T02:57:36;1.83;;;1.48;;
28848;SDS011;15981;43.292;-2.888;2023-01-08T03:00:03;1.75;;;1.40;;
28848;SDS011;15981;43.292;-2.888;2023-01-08T03:02:29;1.40;;;1.30;;
28848;SDS011;15981;43.292;-2.888;2023-01-08T03:04:59;1.23;;;1.13;;
28848;SDS011;15981;43.292;-2.888;2023-01-08T03:07:26;2.08;;;1.05;;
28848;SDS011;15981;43.292;-2.888;2023-01-08T03:09:51;1.88;;;1.25;;
28848;SDS011;15981;43.292;-2.888;2023-01-08T03:12:19;1.75;;;1.60;;
28848;SDS011;15981;43.292;-2.888;2023-01-08T03:14:58;1.50;;;1.40;;
28848;SDS011;15981;43.292;-2.888;2023-01-08T03:17:29;1.60;;;1.30;;
28848;SDS011;15981;43.292;-2.888;2023-01-08T03:19:58;1.20;;;1.10;;
28848;SDS011;15981;43.292;-2.888;2023-01-08T03:22:26;1.75;;;1.20;;
28848;SDS011;15981;43.292;-2.888;2023-01-08T03:24:52;1.35;;;1.25;;
28848;SDS011;15981;43.292;-2.888;2023-01-08T03:27:20;1.52;;;1.20;;
28848;SDS011;15981;43.292;-2.888;2023-01-08T03:29:48;2.05;;;1.27;;
28848;SDS011;15981;43.292;-2.888;2023-01-08T03:32:15;1.02;;;1.00;;
28848;SDS011;15981;43.292;-2.888;2023-01-08T03:34:42;1.25;;;1.08;;
28848;SDS011;15981;43.292;-2.888;2023-01-08T03:37:08;1.35;;;1.10;;
28848;SDS011;15981;43.292;-2.888;2023-01-08T03:39:46;1.17;;;1.05;;
28848;SDS011;15981;43.292;-2.888;2023-01-08T03:42:14;1.40;;;1.23;;
28848;SDS011;15981;43.292;-2.888;2023-01-08T03:44:41;1.33;;;1.23;;
28848;SDS011;15981;43.292;-2.888;2023-01-08T03:47:07;1.50;;;1.40;;
28848;SDS011;15981;43.292;-2.888;2023-01-08T03:49:34;1.30;;;1.10;;
28848;SDS011;15981;43.292;-2.888;2023-01-08T03:52:00;1.88;;;1.08;;
28848;SDS011;15981;43.292;-2.888;2023-01-08T03:54:28;1.08;;;0.98;;
28848;SDS011;15981;43.292;-2.888;2023-01-08T03:56:55;1.30;;;1.20;;
28848;SDS011;15981;43.292;-2.888;2023-01-08T03:59:20;1.65;;;1.55;;
28848;SDS011;15981;43.292;-2.888;2023-01-08T04:01:46;1.30;;;1.20;;
28848;SDS011;15981;43.292;-2.888;2023-01-08T04:04:12;1.10;;;1.00;;
28848;SDS011;15981;43.292;-2.888;2023-01-08T04:06:38;1.30;;;1.20;;
28848;SDS011;15981;43.292;-2.888;2023-01-08T04:09:03;1.33;;;1.20;;
28848;SDS011;15981;43.292;-2.888;2023-01-08T04:11:29;1.30;;;1.20;;
28848;SDS011;15981;43.292;-2.888;2023-01-08T04:13:55;1.52;;;1.30;;
28848;SDS011;15981;43.292;-2.888;2023-01-08T04:16:21;1.70;;;1.38;;
28848;SDS011;15981;43.292;-2.888;2023-01-08T04:18:47;1.30;;;1.10;;
28848;SDS011;15981;43.292;-2.888;2023-01-08T04:21:12;1.65;;;1.20;;
28848;SDS011;15981;43.292;-2.888;2023-01-08T04:23:38;1.45;;;1.35;;
28848;SDS011;15981;43.292;-2.888;2023-01-08T04:26:04;1.80;;;1.33;;
28848;SDS011;15981;43.292;-2.888;2023-01-08T04:28:30;1.27;;;1.15;;
28848;SDS011;15981;43.292;-2.888;2023-01-08T04:30:56;1.40;;;1.10;;
28848;SDS011;15981;43.292;-2.888;2023-01-08T04:33:21;1.27;;;1.17;;
28848;SDS011;15981;43.292;-2.888;2023-01-08T04:35:47;1.15;;;1.10;;
28848;SDS011;15981;43.292;-2.888;2023-01-08T04:38:13;1.35;;;1.10;;
28848;SDS011;15981;43.292;-2.888;2023-01-08T04:40:39;1.30;;;1.20;;
28848;SDS011;15981;43.292;-2.888;2023-01-08T04:43:04;3.78;;;1.40;;
28848;SDS011;15981;43.292;-2.888;2023-01-08T04:45:30;1.30;;;1.20;;
28848;SDS011;15981;43.292;-2.888;2023-01-08T04:47:56;1.45;;;1.33;;
28848;SDS011;15981;43.292;-2.888;2023-01-08T04:50:22;1.30;;;1.20;;
28848;SDS011;15981;43.292;-2.888;2023-01-08T04:52:48;1.63;;;1.17;;
28848;SDS011;15981;43.292;-2.888;2023-01-08T04:55:14;1.63;;;1.40;;
28848;SDS011;15981;43.292;-2.888;2023-01-08T04:57:40;1.45;;;1.30;;
28848;SDS011;15981;43.292;-2.888;2023-01-08T05:00:06;1.67;;;1.20;;
28848;SDS011;15981;43.292;-2.888;2023-01-08T05:02:32;1.55;;;1.20;;
28848;SDS011;15981;43.292;-2.888;2023-01-08T05:04:58;2.33;;;1.20;;
28848;SDS011;15981;43.292;-2.888;2023-01-08T05:07:23;1.58;;;1.30;;
28848;SDS011;15981;43.292;-2.888;2023-01-08T05:09:49;2.05;;;1.30;;
28848;SDS011;15981;43.292;-2.888;2023-01-08T05:12:15;2.33;;;1.40;;
28848;SDS011;15981;43.292;-2.888;2023-01-08T05:14:40;1.80;;;1.13;;
28848;SDS011;15981;43.292;-2.888;2023-01-08T05:17:06;2.10;;;1.20;;
28848;SDS011;15981;43.292;-2.888;2023-01-08T05:19:32;1.30;;;1.20;;
28848;SDS011;15981;43.292;-2.888;2023-01-08T05:21:58;1.33;;;1.20;;
28848;SDS011;15981;43.292;-2.888;2023-01-08T05:24:23;2.15;;;1.15;;
28848;SDS011;15981;43.292;-2.888;2023-01-08T05:26:49;1.60;;;1.30;;
28848;SDS011;15981;43.292;-2.888;2023-01-08T05:29:15;1.20;;;1.10;;
28848;SDS011;15981;43.292;-2.888;2023-01-08T05:31:41;1.40;;;1.30;;
28848;SDS011;15981;43.292;-2.888;2023-01-08T05:34:07;1.20;;;1.10;;
28848;SDS011;15981;43.292;-2.888;2023-01-08T05:36:32;1.23;;;1.00;;
28848;SDS011;15981;43.292;-2.888;2023-01-08T05:38:58;1.23;;;1.02;;
28848;SDS011;15981;43.292;-2.888;2023-01-08T05:41:24;1.35;;;1.20;;
28848;SDS011;15981;43.292;-2.888;2023-01-08T05:43:50;1.40;;;1.27;;
28848;SDS011;15981;43.292;-2.888;2023-01-08T05:46:15;1.85;;;1.30;;
28848;SDS011;15981;43.292;-2.888;2023-01-08T05:48:41;1.73;;;1.20;;
28848;SDS011;15981;43.292;-2.888;2023-01-08T05:51:07;1.25;;;1.15;;
28848;SDS011;15981;43.292;-2.888;2023-01-08T05:53:33;1.40;;;1.30;;
28848;SDS011;15981;43.292;-2.888;2023-01-08T05:55:59;1.33;;;1.13;;
28848;SDS011;15981;43.292;-2.888;2023-01-08T05:58:25;1.48;;;1.30;;
28848;SDS011;15981;43.292;-2.888;2023-01-08T06:00:51;1.73;;;1.48;;
28848;SDS011;15981;43.292;-2.888;2023-01-08T06:03:21;1.30;;;1.20;;
28848;SDS011;15981;43.292;-2.888;2023-01-08T06:05:46;1.88;;;1.25;;
28848;SDS011;15981;43.292;-2.888;2023-01-08T06:08:12;1.73;;;1.27;;
28848;SDS011;15981;43.292;-2.888;2023-01-08T06:10:38;1.17;;;1.08;;
28848;SDS011;15981;43.292;-2.888;2023-01-08T06:13:07;1.60;;;1.33;;
28848;SDS011;15981;43.292;-2.888;2023-01-08T06:15:33;1.20;;;1.10;;
28848;SDS011;15981;43.292;-2.888;2023-01-08T06:18:02;2.20;;;1.30;;
28848;SDS011;15981;43.292;-2.888;2023-01-08T06:20:27;1.52;;;1.20;;
28848;SDS011;15981;43.292;-2.888;2023-01-08T06:22:53;1.20;;;1.05;;
28848;SDS011;15981;43.292;-2.888;2023-01-08T06:25:19;1.20;;;1.10;;
28848;SDS011;15981;43.292;-2.888;2023-01-08T06:27:49;1.48;;;1.30;;
28848;SDS011;15981;43.292;-2.888;2023-01-08T06:30:15;1.10;;;1.00;;
28848;SDS011;15981;43.292;-2.888;2023-01-08T06:32:41;1.48;;;1.35;;
28848;SDS011;15981;43.292;-2.888;2023-01-08T06:35:06;1.30;;;1.10;;
28848;SDS011;15981;43.292;-2.888;2023-01-08T06:37:32;1.50;;;1.35;;
28848;SDS011;15981;43.292;-2.888;2023-01-08T06:39:58;1.85;;;1.40;;
28848;SDS011;15981;43.292;-2.888;2023-01-08T06:42:24;1.30;;;1.20;;
28848;SDS011;15981;43.292;-2.888;2023-01-08T06:44:49;1.20;;;1.10;;
28848;SDS011;15981;43.292;-2.888;2023-01-08T06:47:15;1.27;;;1.17;;
28848;SDS011;15981;43.292;-2.888;2023-01-08T06:49:41;1.77;;;1.20;;
28848;SDS011;15981;43.292;-2.888;2023-01-08T06:52:06;1.33;;;1.20;;
28848;SDS011;15981;43.292;-2.888;2023-01-08T06:54:32;1.85;;;1.15;;
28848;SDS011;15981;43.292;-2.888;2023-01-08T06:56:58;1.20;;;1.10;;
28848;SDS011;15981;43.292;-2.888;2023-01-08T06:59:24;1.25;;;1.15;;
28848;SDS011;15981;43.292;-2.888;2023-01-08T07:01:49;1.67;;;1.40;;
28848;SDS011;15981;43.292;-2.888;2023-01-08T07:04:16;2.20;;;1.30;;
28848;SDS011;15981;43.292;-2.888;2023-01-08T07:06:42;1.67;;;1.38;;
28848;SDS011;15981;43.292;-2.888;2023-01-08T07:09:11;1.50;;;1.00;;
28848;SDS011;15981;43.292;-2.888;2023-01-08T07:11:37;1.50;;;1.20;;
28848;SDS011;15981;43.292;-2.888;2023-01-08T07:14:02;1.30;;;1.20;;
28848;SDS011;15981;43.292;-2.888;2023-01-08T07:16:28;4.55;;;1.75;;
28848;SDS011;15981;43.292;-2.888;2023-01-08T07:18:54;1.80;;;1.20;;
28848;SDS011;15981;43.292;-2.888;2023-01-08T07:21:19;1.20;;;1.10;;
28848;SDS011;15981;43.292;-2.888;2023-01-08T07:23:47;1.90;;;1.20;;
28848;SDS011;15981;43.292;-2.888;2023-01-08T07:26:13;1.20;;;1.10;;
28848;SDS011;15981;43.292;-2.888;2023-01-08T07:28:39;1.20;;;1.10;;
28848;SDS011;15981;43.292;-2.888;2023-01-08T07:31:04;2.22;;;1.20;;
28848;SDS011;15981;43.292;-2.888;2023-01-08T07:33:30;1.65;;;1.00;;
28848;SDS011;15981;43.292;-2.888;2023-01-08T07:35:56;2.20;;;1.20;;
28848;SDS011;15981;43.292;-2.888;2023-01-08T07:38:22;1.95;;;0.95;;
28848;SDS011;15981;43.292;-2.888;2023-01-08T07:40:48;1.95;;;1.00;;
28848;SDS011;15981;43.292;-2.888;2023-01-08T07:43:14;1.90;;;1.50;;
28848;SDS011;15981;43.292;-2.888;2023-01-08T07:45:39;2.03;;;1.20;;
28848;SDS011;15981;43.292;-2.888;2023-01-08T07:48:05;2.15;;;1.40;;
28848;SDS011;15981;43.292;-2.888;2023-01-08T07:50:32;3.60;;;1.50;;
28848;SDS011;15981;43.292;-2.888;2023-01-08T07:52:58;3.92;;;1.73;;
28848;SDS011;15981;43.292;-2.888;2023-01-08T07:55:24;2.95;;;1.77;;
28848;SDS011;15981;43.292;-2.888;2023-01-08T07:57:50;2.13;;;1.35;;
28848;SDS011;15981;43.292;-2.888;2023-01-08T08:00:15;2.55;;;1.23;;
28848;SDS011;15981;43.292;-2.888;2023-01-08T08:02:41;2.60;;;1.30;;
28848;SDS011;15981;43.292;-2.888;2023-01-08T08:05:07;2.35;;;1.33;;
28848;SDS011;15981;43.292;-2.888;2023-01-08T08:07:33;1.80;;;1.42;;
28848;SDS011;15981;43.292;-2.888;2023-01-08T08:10:00;2.42;;;1.33;;
28848;SDS011;15981;43.292;-2.888;2023-01-08T08:12:26;2.53;;;1.20;;
28848;SDS011;15981;43.292;-2.888;2023-01-08T08:14:52;1.15;;;0.90;;
28848;SDS011;15981;43.292;-2.888;2023-01-08T08:17:17;3.55;;;1.20;;
28848;SDS011;15981;43.292;-2.888;2023-01-08T08:19:43;1.27;;;1.00;;
28848;SDS011;15981;43.292;-2.888;2023-01-08T08:22:10;2.80;;;1.38;;
28848;SDS011;15981;43.292;-2.888;2023-01-08T08:24:36;1.60;;;0.93;;
28848;SDS011;15981;43.292;-2.888;2023-01-08T08:27:02;1.38;;;1.00;;
28848;SDS011;15981;43.292;-2.888;2023-01-08T08:29:28;2.35;;;1.15;;
28848;SDS011;15981;43.292;-2.888;2023-01-08T08:31:54;3.10;;;1.00;;
28848;SDS011;15981;43.292;-2.888;2023-01-08T08:34:19;1.90;;;1.17;;
28848;SDS011;15981;43.292;-2.888;2023-01-08T08:36:47;6.18;;;1.20;;
28848;SDS011;15981;43.292;-2.888;2023-01-08T08:39:13;2.08;;;1.00;;
28848;SDS011;15981;43.292;-2.888;2023-01-08T08:41:39;1.67;;;0.90;;
28848;SDS011;15981;43.292;-2.888;2023-01-08T08:44:05;2.13;;;0.95;;
28848;SDS011;15981;43.292;-2.888;2023-01-08T08:46:30;0.88;;;0.75;;
28848;SDS011;15981;43.292;-2.888;2023-01-08T08:48:56;1.77;;;1.02;;
28848;SDS011;15981;43.292;-2.888;2023-01-08T08:51:22;1.92;;;0.88;;
28848;SDS011;15981;43.292;-2.888;2023-01-08T08:53:48;2.28;;;1.15;;
28848;SDS011;15981;43.292;-2.888;2023-01-08T08:56:13;2.00;;;1.00;;
28848;SDS011;15981;43.292;-2.888;2023-01-08T08:58:39;2.42;;;0.80;;
28848;SDS011;15981;43.292;-2.888;2023-01-08T09:01:06;1.63;;;1.05;;
28848;SDS011;15981;43.292;-2.888;2023-01-08T09:03:33;2.75;;;1.00;;
28848;SDS011;15981;43.292;-2.888;2023-01-08T09:05:59;2.05;;;0.90;;
28848;SDS011;15981;43.292;-2.888;2023-01-08T09:08:25;2.03;;;0.80;;
28848;SDS011;15981;43.292;-2.888;2023-01-08T09:10:50;1.67;;;1.05;;
28848;SDS011;15981;43.292;-2.888;2023-01-08T09:13:16;1.17;;;0.65;;
28848;SDS011;15981;43.292;-2.888;2023-01-08T09:15:42;1.05;;;0.70;;
28848;SDS011;15981;43.292;-2.888;2023-01-08T09:18:08;3.63;;;0.80;;
28848;SDS011;15981;43.292;-2.888;2023-01-08T09:20:34;1.38;;;0.80;;
28848;SDS011;15981;43.292;-2.888;2023-01-08T09:23:00;2.75;;;1.40;;
28848;SDS011;15981;43.292;-2.888;2023-01-08T09:25:26;3.53;;;1.60;;
28848;SDS011;15981;43.292;-2.888;2023-01-08T09:27:58;6.22;;;4.13;;
28848;SDS011;15981;43.292;-2.888;2023-01-08T09:30:24;7.60;;;4.63;;
28848;SDS011;15981;43.292;-2.888;2023-01-08T09:32:50;6.93;;;5.70;;
28848;SDS011;15981;43.292;-2.888;2023-01-08T09:35:16;8.63;;;5.57;;
28848;SDS011;15981;43.292;-2.888;2023-01-08T09:37:41;9.52;;;7.13;;
28848;SDS011;15981;43.292;-2.888;2023-01-08T09:40:09;8.63;;;5.95;;
28848;SDS011;15981;43.292;-2.888;2023-01-08T09:42:35;8.32;;;6.32;;
28848;SDS011;15981;43.292;-2.888;2023-01-08T09:45:01;9.23;;;5.72;;
28848;SDS011;15981;43.292;-2.888;2023-01-08T09:47:29;9.25;;;5.90;;
28848;SDS011;15981;43.292;-2.888;2023-01-08T09:49:58;8.70;;;5.60;;
28848;SDS011;15981;43.292;-2.888;2023-01-08T09:52:25;7.10;;;5.20;;
28848;SDS011;15981;43.292;-2.888;2023-01-08T09:54:51;6.70;;;4.78;;
28848;SDS011;15981;43.292;-2.888;2023-01-08T09:57:17;6.97;;;4.93;;
28848;SDS011;15981;43.292;-2.888;2023-01-08T09:59:44;7.18;;;4.45;;
28848;SDS011;15981;43.292;-2.888;2023-01-08T10:02:13;7.22;;;4.25;;
28848;SDS011;15981;43.292;-2.888;2023-01-08T10:04:39;3.88;;;3.30;;
28848;SDS011;15981;43.292;-2.888;2023-01-08T10:07:19;4.75;;;3.40;;
28848;SDS011;15981;43.292;-2.888;2023-01-08T10:09:49;6.25;;;3.30;;
28848;SDS011;15981;43.292;-2.888;2023-01-08T10:12:17;5.18;;;3.20;;
28848;SDS011;15981;43.292;-2.888;2023-01-08T10:14:45;3.97;;;2.63;;
28848;SDS011;15981;43.292;-2.888;2023-01-08T10:20:16;3.38;;;2.30;;
28848;SDS011;15981;43.292;-2.888;2023-01-08T10:22:42;2.75;;;1.90;;
28848;SDS011;15981;43.292;-2.888;2023-01-08T10:25:13;2.63;;;1.90;;
28848;SDS011;15981;43.292;-2.888;2023-01-08T10:27:49;2.70;;;2.17;;
28848;SDS011;15981;43.292;-2.888;2023-01-08T10:30:16;2.95;;;2.00;;
28848;SDS011;15981;43.292;-2.888;2023-01-08T10:32:46;4.43;;;2.00;;
28848;SDS011;15981;43.292;-2.888;2023-01-08T10:35:16;2.00;;;1.70;;
28848;SDS011;15981;43.292;-2.888;2023-01-08T10:37:43;3.65;;;1.67;;
28848;SDS011;15981;43.292;-2.888;2023-01-08T10:40:25;2.28;;;1.48;;
28848;SDS011;15981;43.292;-2.888;2023-01-08T10:42:53;2.00;;;1.58;;
28848;SDS011;15981;43.292;-2.888;2023-01-08T10:45:21;2.53;;;1.58;;
28848;SDS011;15981;43.292;-2.888;2023-01-08T10:47:48;1.70;;;1.30;;
28848;SDS011;15981;43.292;-2.888;2023-01-08T10:50:17;2.47;;;1.20;;
28848;SDS011;15981;43.292;-2.888;2023-01-08T10:52:50;1.80;;;1.30;;
28848;SDS011;15981;43.292;-2.888;2023-01-08T10:55:24;3.70;;;1.60;;
28848;SDS011;15981;43.292;-2.888;2023-01-08T10:57:57;14.32;;;4.28;;
28848;SDS011;15981;43.292;-2.888;2023-01-08T11:00:24;19.77;;;6.28;;
28848;SDS011;15981;43.292;-2.888;2023-01-08T11:02:50;20.38;;;5.40;;
28848;SDS011;15981;43.292;-2.888;2023-01-08T11:05:16;13.27;;;3.97;;
28848;SDS011;15981;43.292;-2.888;2023-01-08T11:07:42;10.00;;;3.30;;
28848;SDS011;15981;43.292;-2.888;2023-01-08T11:10:21;9.05;;;2.58;;
28848;SDS011;15981;43.292;-2.888;2023-01-08T11:12:48;7.88;;;2.88;;
28848;SDS011;15981;43.292;-2.888;2023-01-08T11:17:47;5.75;;;2.20;;
28848;SDS011;15981;43.292;-2.888;2023-01-08T11:20:21;6.63;;;2.88;;
28848;SDS011;15981;43.292;-2.888;2023-01-08T11:22:47;3.83;;;1.77;;
28848;SDS011;15981;43.292;-2.888;2023-01-08T11:25:13;5.82;;;2.30;;
28848;SDS011;15981;43.292;-2.888;2023-01-08T11:27:43;6.45;;;2.60;;
28848;SDS011;15981;43.292;-2.888;2023-01-08T11:30:13;4.45;;;2.00;;
28848;SDS011;15981;43.292;-2.888;2023-01-08T11:37:38;6.88;;;3.13;;
28848;SDS011;15981;43.292;-2.888;2023-01-08T11:40:12;10.50;;;4.47;;
28848;SDS011;15981;43.292;-2.888;2023-01-08T11:48:04;7.93;;;4.32;;
28848;SDS011;15981;43.292;-2.888;2023-01-08T11:53:19;6.57;;;3.60;;
28848;SDS011;15981;43.292;-2.888;2023-01-08T11:55:51;5.15;;;3.00;;
28848;SDS011;15981;43.292;-2.888;2023-01-08T11:58:23;5.32;;;3.00;;
28848;SDS011;15981;43.292;-2.888;2023-01-08T12:06:20;4.07;;;2.13;;
28848;SDS011;15981;43.292;-2.888;2023-01-08T12:11:26;4.20;;;2.03;;
28848;SDS011;15981;43.292;-2.888;2023-01-08T12:16:35;4.88;;;1.63;;
28848;SDS011;15981;43.292;-2.888;2023-01-08T12:40:21;1.92;;;1.00;;
28848;SDS011;15981;43.292;-2.888;2023-01-08T12:42:40;1.92;;;1.27;;
28848;SDS011;15981;43.292;-2.888;2023-01-08T12:45:13;2.13;;;1.10;;
28848;SDS011;15981;43.292;-2.888;2023-01-08T12:47:40;1.35;;;1.02;;
28848;SDS011;15981;43.292;-2.888;2023-01-08T12:50:15;1.63;;;1.20;;
28848;SDS011;15981;43.292;-2.888;2023-01-08T12:52:57;2.15;;;1.25;;
28848;SDS011;15981;43.292;-2.888;2023-01-08T12:58:00;1.88;;;1.08;;
28848;SDS011;15981;43.292;-2.888;2023-01-08T13:00:30;2.15;;;1.10;;
28848;SDS011;15981;43.292;-2.888;2023-01-08T13:03:00;1.63;;;0.98;;
28848;SDS011;15981;43.292;-2.888;2023-01-08T13:05:28;3.33;;;1.20;;
28848;SDS011;15981;43.292;-2.888;2023-01-08T13:07:58;1.70;;;1.00;;
28848;SDS011;15981;43.292;-2.888;2023-01-08T13:12:53;1.38;;;0.82;;
28848;SDS011;15981;43.292;-2.888;2023-01-08T13:15:20;2.05;;;1.00;;
28848;SDS011;15981;43.292;-2.888;2023-01-08T13:17:47;1.55;;;0.98;;
28848;SDS011;15981;43.292;-2.888;2023-01-08T13:20:13;1.33;;;0.95;;
28848;SDS011;15981;43.292;-2.888;2023-01-08T13:22:49;1.15;;;0.85;;
28848;SDS011;15981;43.292;-2.888;2023-01-08T13:27:43;1.60;;;0.90;;
28848;SDS011;15981;43.292;-2.888;2023-01-08T13:32:53;1.08;;;0.80;;
28848;SDS011;15981;43.292;-2.888;2023-01-08T13:35:21;2.03;;;0.75;;
28848;SDS011;15981;43.292;-2.888;2023-01-08T13:37:50;1.48;;;1.10;;
28848;SDS011;15981;43.292;-2.888;2023-01-08T13:43:00;1.55;;;0.93;;
28848;SDS011;15981;43.292;-2.888;2023-01-08T13:45:27;3.03;;;1.10;;
28848;SDS011;15981;43.292;-2.888;2023-01-08T13:47:54;1.10;;;0.68;;
28848;SDS011;15981;43.292;-2.888;2023-01-08T13:50:23;1.63;;;0.90;;
28848;SDS011;15981;43.292;-2.888;2023-01-08T13:52:58;1.13;;;0.80;;
28848;SDS011;15981;43.292;-2.888;2023-01-08T13:55:32;1.60;;;0.90;;
28848;SDS011;15981;43.292;-2.888;2023-01-08T13:57:59;1.58;;;0.65;;
28848;SDS011;15981;43.292;-2.888;2023-01-08T14:02:52;1.45;;;0.80;;
28848;SDS011;15981;43.292;-2.888;2023-01-08T14:07:45;0.57;;;0.50;;
28848;SDS011;15981;43.292;-2.888;2023-01-08T14:10:11;0.85;;;0.50;;
28848;SDS011;15981;43.292;-2.888;2023-01-08T14:12:38;1.55;;;0.60;;
28848;SDS011;15981;43.292;-2.888;2023-01-08T14:15:04;0.90;;;0.63;;
28848;SDS011;15981;43.292;-2.888;2023-01-08T14:17:34;1.23;;;0.68;;
28848;SDS011;15981;43.292;-2.888;2023-01-08T14:20:00;0.50;;;0.50;;
28848;SDS011;15981;43.292;-2.888;2023-01-08T14:22:28;0.70;;;0.60;;
28848;SDS011;15981;43.292;-2.888;2023-01-08T14:24:55;1.33;;;0.63;;
28848;SDS011;15981;43.292;-2.888;2023-01-08T14:27:23;0.40;;;0.40;;
28848;SDS011;15981;43.292;-2.888;2023-01-08T14:29:49;0.65;;;0.45;;
28848;SDS011;15981;43.292;-2.888;2023-01-08T14:32:19;0.50;;;0.50;;
28848;SDS011;15981;43.292;-2.888;2023-01-08T14:34:46;0.77;;;0.65;;
28848;SDS011;15981;43.292;-2.888;2023-01-08T14:37:15;0.57;;;0.57;;
28848;SDS011;15981;43.292;-2.888;2023-01-08T14:39:42;0.47;;;0.43;;
28848;SDS011;15981;43.292;-2.888;2023-01-08T14:45:05;1.33;;;0.60;;
28848;SDS011;15981;43.292;-2.888;2023-01-08T14:47:33;0.85;;;0.50;;
28848;SDS011;15981;43.292;-2.888;2023-01-08T14:50:00;0.93;;;0.50;;
28848;SDS011;15981;43.292;-2.888;2023-01-08T14:52:26;1.27;;;0.68;;
28848;SDS011;15981;43.292;-2.888;2023-01-08T14:54:52;1.05;;;0.63;;
28848;SDS011;15981;43.292;-2.888;2023-01-08T14:57:19;1.85;;;0.70;;
28848;SDS011;15981;43.292;-2.888;2023-01-08T14:59:48;0.85;;;0.60;;
28848;SDS011;15981;43.292;-2.888;2023-01-08T15:02:30;0.90;;;0.70;;
28848;SDS011;15981;43.292;-2.888;2023-01-08T15:05:00;0.65;;;0.60;;
28848;SDS011;15981;43.292;-2.888;2023-01-08T15:07:25;1.27;;;0.50;;
28848;SDS011;15981;43.292;-2.888;2023-01-08T15:09:59;1.20;;;0.60;;
28848;SDS011;15981;43.292;-2.888;2023-01-08T15:12:26;1.15;;;0.60;;
28848;SDS011;15981;43.292;-2.888;2023-01-08T15:14:52;1.42;;;0.68;;
28848;SDS011;15981;43.292;-2.888;2023-01-08T15:17:20;2.38;;;0.75;;
28848;SDS011;15981;43.292;-2.888;2023-01-08T15:19:56;3.03;;;0.95;;
28848;SDS011;15981;43.292;-2.888;2023-01-08T15:22:26;1.73;;;0.90;;
28848;SDS011;15981;43.292;-2.888;2023-01-08T15:24:59;2.03;;;0.70;;
28848;SDS011;15981;43.292;-2.888;2023-01-08T15:27:25;1.65;;;0.93;;
28848;SDS011;15981;43.292;-2.888;2023-01-08T15:29:53;1.92;;;0.90;;
28848;SDS011;15981;43.292;-2.888;2023-01-08T15:32:27;1.90;;;0.90;;
28848;SDS011;15981;43.292;-2.888;2023-01-08T15:34:54;1.58;;;0.70;;
28848;SDS011;15981;43.292;-2.888;2023-01-08T15:37:20;0.60;;;0.60;;
28848;SDS011;15981;43.292;-2.888;2023-01-08T15:39:45;0.93;;;0.70;;
28848;SDS011;15981;43.292;-2.888;2023-01-08T15:42:21;0.50;;;0.50;;
28848;SDS011;15981;43.292;-2.888;2023-01-08T15:45:14;1.55;;;0.63;;
28848;SDS011;15981;43.292;-2.888;2023-01-08T15:47:40;0.90;;;0.75;;
28848;SDS011;15981;43.292;-2.888;2023-01-08T15:50:06;3.15;;;0.70;;
28848;SDS011;15981;43.292;-2.888;2023-01-08T15:52:35;0.98;;;0.60;;
28848;SDS011;15981;43.292;-2.888;2023-01-08T15:55:01;0.82;;;0.50;;
28848;SDS011;15981;43.292;-2.888;2023-01-08T15:57:27;0.73;;;0.68;;
28848;SDS011;15981;43.292;-2.888;2023-01-08T15:59:56;1.38;;;0.85;;
28848;SDS011;15981;43.292;-2.888;2023-01-08T16:02:22;1.48;;;0.77;;
28848;SDS011;15981;43.292;-2.888;2023-01-08T16:04:51;2.20;;;0.82;;